createdAt,value
2022-08-10T00:01:55.088Z,13.10
2022-08-10T00:04:24.731Z,13.00
2022-08-10T00:06:54.988Z,13.40
2022-08-10T00:09:24.837Z,12.60
2022-08-10T00:11:53.512Z,13.87
2022-08-10T00:14:23.555Z,15.33
2022-08-10T00:16:52.219Z,12.80
2022-08-10T00:19:20.852Z,14.40
2022-08-10T00:21:51.621Z,14.03
2022-08-10T00:24:20.307Z,14.40
2022-08-10T00:28:01.133Z,13.70
2022-08-10T00:29:38.979Z,15.13
2022-08-10T00:32:07.985Z,14.03
2022-08-10T00:34:36.619Z,13.40
2022-08-10T00:37:05.519Z,13.33
2022-08-10T00:39:36.316Z,14.77
2022-08-10T00:42:09.525Z,14.63
2022-08-10T00:44:41.161Z,13.07
2022-08-10T00:47:36.478Z,14.23
2022-08-10T00:49:59.826Z,14.40
2022-08-10T00:52:30.980Z,14.53
2022-08-10T00:55:00.267Z,13.20
2022-08-10T00:57:29.585Z,16.03
2022-08-10T01:00:00.674Z,13.70
2022-08-10T01:02:32.095Z,14.53
2022-08-10T01:05:04.094Z,14.07
2022-08-10T01:07:50.819Z,14.07
2022-08-10T01:10:30.081Z,14.67
2022-08-10T01:13:07.750Z,12.70
2022-08-10T01:15:48.859Z,12.57
2022-08-10T01:18:27.801Z,14.03
2022-08-10T01:21:26.679Z,12.77
2022-08-10T01:24:14.716Z,11.40
2022-08-10T01:26:57.933Z,13.30
2022-08-10T01:29:54.469Z,12.03
2022-08-10T01:32:34.151Z,12.70
2022-08-10T01:35:12.617Z,13.90
2022-08-10T01:37:52.057Z,14.10
2022-08-10T01:40:26.308Z,14.33
2022-08-10T01:42:59.740Z,13.10
2022-08-10T01:45:45.246Z,12.93
2022-08-10T01:48:30.727Z,13.03
2022-08-10T01:51:14.197Z,13.30
2022-08-10T01:53:51.984Z,14.00
2022-08-10T01:56:23.703Z,14.67
2022-08-10T01:58:56.799Z,12.13
2022-08-10T02:01:29.598Z,13.13
2022-08-10T02:04:06.162Z,12.53
2022-08-10T02:06:38.506Z,12.97
2022-08-10T02:09:09.161Z,14.37
2022-08-10T02:12:06.142Z,12.53
2022-08-10T02:14:34.134Z,14.70
2022-08-10T02:17:09.102Z,13.73
2022-08-10T02:20:03.129Z,13.83
2022-08-10T02:22:46.092Z,15.07
2022-08-10T02:25:39.717Z,14.53
2022-08-10T02:28:07.474Z,13.57
2022-08-10T02:30:38.332Z,12.87
2022-08-10T02:33:09.901Z,12.93
2022-08-10T02:35:55.169Z,13.70
2022-08-10T02:38:58.356Z,14.80
2022-08-10T02:45:01.238Z,14.63
2022-08-10T02:45:24.426Z,14.37
2022-08-10T02:47:16.918Z,14.37
2022-08-10T02:49:53.583Z,12.57
2022-08-10T02:52:26.134Z,13.40
2022-08-10T02:55:06.189Z,12.40
2022-08-10T02:58:17.196Z,13.60
2022-08-10T03:00:45.842Z,13.03
2022-08-10T03:03:20.192Z,13.93
2022-08-10T03:05:54.649Z,12.60
2022-08-10T03:08:27.132Z,15.43
2022-08-10T03:10:59.358Z,12.33
2022-08-10T03:13:29.474Z,12.90
2022-08-10T03:16:01.580Z,12.10
2022-08-10T03:18:33.040Z,13.47
2022-08-10T03:21:05.372Z,13.53
2022-08-10T03:23:37.888Z,12.97
2022-08-10T03:26:07.819Z,13.57
2022-08-10T03:28:37.530Z,12.67
2022-08-10T03:31:06.426Z,13.97
2022-08-10T03:33:38.052Z,12.73
2022-08-10T03:36:40.568Z,12.90
2022-08-10T03:38:57.837Z,13.73
2022-08-10T03:41:35.522Z,14.60
2022-08-10T03:44:05.828Z,13.53
2022-08-10T03:46:37.256Z,13.37
2022-08-10T03:49:07.082Z,13.63
2022-08-10T03:51:38.335Z,13.23
2022-08-10T03:54:07.643Z,14.33
2022-08-10T03:56:38.261Z,14.87
2022-08-10T03:59:10.102Z,14.40
2022-08-10T04:02:45.243Z,14.47
2022-08-10T04:04:27.918Z,15.60
2022-08-10T04:06:59.709Z,14.63
2022-08-10T04:09:55.418Z,15.33
2022-08-10T04:12:19.240Z,16.87
2022-08-10T04:14:50.886Z,14.90
2022-08-10T04:17:57.081Z,14.60
2022-08-10T04:20:17.438Z,14.47
2022-08-10T04:22:51.002Z,15.03
2022-08-10T04:25:20.612Z,15.47
2022-08-10T04:27:50.950Z,14.30
2022-08-10T04:30:19.809Z,17.63
2022-08-10T04:32:51.133Z,14.70
2022-08-10T04:35:22.159Z,15.33
2022-08-10T04:37:54.646Z,14.40
2022-08-10T04:40:29.871Z,15.47
2022-08-10T04:43:10.811Z,13.80
2022-08-10T04:45:49.167Z,14.03
2022-08-10T04:48:41.229Z,12.23
2022-08-10T04:51:17.757Z,14.70
2022-08-10T04:54:06.169Z,14.20
2022-08-10T04:56:37.052Z,15.63
2022-08-10T04:59:07.032Z,14.53
2022-08-10T05:02:12.100Z,15.13
2022-08-10T05:04:38.580Z,15.40
2022-08-10T05:07:12.204Z,14.83
2022-08-10T05:10:01.698Z,15.10
2022-08-10T05:12:36.508Z,15.50
2022-08-10T05:15:08.340Z,15.23
2022-08-10T05:17:37.870Z,16.43
2022-08-10T05:20:09.114Z,17.10
2022-08-10T05:22:39.977Z,17.23
2022-08-10T05:25:12.859Z,17.43
2022-08-10T05:27:42.950Z,15.70
2022-08-10T05:30:14.548Z,16.30
2022-08-10T05:32:56.462Z,15.77
2022-08-10T05:35:27.133Z,18.03
2022-08-10T05:38:13.275Z,16.17
2022-08-10T05:40:46.702Z,17.60
2022-08-10T05:43:19.238Z,18.13
2022-08-10T05:46:17.841Z,16.23
2022-08-10T05:48:58.222Z,16.10
2022-08-10T05:51:27.229Z,19.03
2022-08-10T05:54:02.377Z,16.93
2022-08-10T05:56:54.727Z,16.70
2022-08-10T06:00:11.249Z,18.30
2022-08-10T06:02:31.096Z,17.80
2022-08-10T06:05:07.473Z,16.53
2022-08-10T06:07:39.590Z,17.40
2022-08-10T06:10:12.923Z,16.83
2022-08-10T06:12:55.702Z,16.53
2022-08-10T06:15:50.867Z,18.10
2022-08-10T06:18:15.873Z,16.30
2022-08-10T06:20:46.388Z,17.57
2022-08-10T06:23:15.620Z,17.00
2022-08-10T06:26:11.460Z,19.00
2022-08-10T06:28:39.103Z,18.40
2022-08-10T06:31:09.023Z,17.40
2022-08-10T06:33:40.400Z,18.20
2022-08-10T06:36:11.005Z,17.60
2022-08-10T06:38:41.398Z,18.57
2022-08-10T06:41:19.930Z,18.43
2022-08-10T06:44:00.356Z,15.87
2022-08-10T06:46:31.625Z,18.30
2022-08-10T06:49:03.895Z,17.17
2022-08-10T06:51:35.456Z,18.70
2022-08-10T06:54:07.019Z,18.40
2022-08-10T06:56:50.831Z,18.83
2022-08-10T06:59:32.808Z,16.93
2022-08-10T07:02:08.712Z,18.37
2022-08-10T07:04:43.727Z,18.97
2022-08-10T07:07:18.098Z,18.47
2022-08-10T07:09:48.502Z,18.53
2022-08-10T07:12:22.120Z,17.67
2022-08-10T07:14:56.628Z,16.13
2022-08-10T07:17:35.915Z,19.00
2022-08-10T07:20:10.201Z,19.20
2022-08-10T07:23:27.112Z,18.47
2022-08-10T07:25:30.737Z,19.00
2022-08-10T07:28:02.094Z,17.10
2022-08-10T07:30:38.088Z,18.50
2022-08-10T07:33:08.631Z,19.43
2022-08-10T07:35:43.031Z,17.03
2022-08-10T07:38:17.133Z,17.47
2022-08-10T07:40:46.805Z,18.30
2022-08-10T07:43:17.183Z,17.27
2022-08-10T07:45:49.498Z,18.93
2022-08-10T07:48:23.996Z,19.83
2022-08-10T07:50:57.928Z,17.73
2022-08-10T07:53:28.967Z,17.43
2022-08-10T07:56:04.328Z,18.53
2022-08-10T07:58:51.988Z,19.00
2022-08-10T08:01:29.082Z,19.10
2022-08-10T08:04:06.037Z,18.33
2022-08-10T08:06:42.662Z,19.07
2022-08-10T08:09:11.996Z,20.07
2022-08-10T08:11:43.646Z,21.10
2022-08-10T08:14:13.892Z,18.73
2022-08-10T08:16:47.377Z,19.57
2022-08-10T08:19:37.765Z,18.70
2022-08-10T08:24:05.241Z,19.90
2022-08-10T08:24:58.877Z,18.80
2022-08-10T08:27:29.702Z,19.87
2022-08-10T08:29:59.306Z,18.90
2022-08-10T08:32:34.548Z,19.03
2022-08-10T08:35:06.379Z,19.43
2022-08-10T08:38:33.455Z,21.40
2022-08-10T08:40:30.228Z,19.63
2022-08-10T08:43:24.123Z,19.10
2022-08-10T08:46:13.680Z,18.47
2022-08-10T08:49:00.418Z,19.03
2022-08-10T08:52:09.357Z,19.77
2022-08-10T08:54:46.682Z,19.53
2022-08-10T08:57:49.599Z,19.37
2022-08-10T09:00:25.091Z,20.70
2022-08-10T09:03:11.587Z,18.83
2022-08-10T09:05:58.520Z,19.03
2022-08-10T09:08:50.434Z,21.13
2022-08-10T09:11:34.536Z,18.83
2022-08-10T09:14:11.522Z,18.77
2022-08-10T09:16:48.591Z,19.60
2022-08-10T09:19:34.927Z,19.83
2022-08-10T09:22:18.203Z,20.23
2022-08-10T09:24:53.550Z,19.33
2022-08-10T09:27:24.490Z,20.60
2022-08-10T09:29:57.472Z,19.77
2022-08-10T09:36:17.011Z,19.20
2022-08-10T09:36:23.688Z,20.87
2022-08-10T09:38:31.807Z,19.90
2022-08-10T09:41:13.540Z,20.17
2022-08-10T09:43:50.861Z,20.60
2022-08-10T09:46:35.154Z,20.97
2022-08-10T09:49:16.157Z,21.13
2022-08-10T09:51:54.979Z,20.80
2022-08-10T09:54:40.677Z,20.43
2022-08-10T09:57:43.815Z,20.70
2022-08-10T10:00:12.861Z,20.80
2022-08-10T10:03:04.719Z,21.17
2022-08-10T10:05:50.076Z,21.93
2022-08-10T10:08:33.412Z,20.23
2022-08-10T10:11:10.805Z,20.63
2022-08-10T10:14:03.108Z,22.30
2022-08-10T10:16:45.153Z,22.03
2022-08-10T10:19:31.612Z,20.90
2022-08-10T10:22:11.801Z,21.47
2022-08-10T10:24:45.149Z,21.43
2022-08-10T10:27:40.747Z,22.57
2022-08-10T10:30:12.212Z,21.03
2022-08-10T10:32:58.392Z,23.83
2022-08-10T10:35:36.322Z,21.90
2022-08-10T10:38:09.106Z,22.47
2022-08-10T10:40:45.167Z,23.00
2022-08-10T10:43:32.707Z,20.83
2022-08-10T10:46:13.625Z,22.43
2022-08-10T10:48:53.779Z,22.83
2022-08-10T10:51:29.036Z,21.83
2022-08-10T10:54:09.115Z,22.20
2022-08-10T10:56:48.667Z,23.10
2022-08-10T10:59:54.568Z,21.37
2022-08-10T11:02:32.557Z,21.97
2022-08-10T11:05:16.554Z,21.23
2022-08-10T11:07:53.486Z,23.47
2022-08-10T11:10:33.023Z,22.07
2022-08-10T11:14:26.970Z,21.80
2022-08-10T11:16:18.873Z,21.83
2022-08-10T11:18:56.462Z,22.67
2022-08-10T11:21:37.888Z,22.43
2022-08-10T11:24:46.840Z,23.13
2022-08-10T11:27:17.365Z,22.53
2022-08-10T11:30:01.692Z,22.77
2022-08-10T11:32:42.253Z,23.23
2022-08-10T11:35:20.126Z,22.67
2022-08-10T11:38:28.447Z,22.50
2022-08-10T11:40:53.796Z,23.87
2022-08-10T11:43:27.312Z,23.23
2022-08-10T11:46:07.828Z,23.97
2022-08-10T11:48:53.103Z,24.47
2022-08-10T11:51:43.104Z,22.00
2022-08-10T11:54:27.211Z,23.10
2022-08-10T11:57:02.430Z,22.13
2022-08-10T11:59:58.293Z,24.03
2022-08-10T12:02:33.751Z,23.47
2022-08-10T12:05:09.525Z,22.10
2022-08-10T12:10:06.682Z,24.27
2022-08-10T12:10:36.395Z,23.23
2022-08-10T12:13:12.680Z,24.50
2022-08-10T12:15:47.134Z,23.63
2022-08-10T12:18:21.059Z,22.37
2022-08-10T12:20:56.893Z,23.40
2022-08-10T12:23:31.202Z,22.87
2022-08-10T12:26:13.902Z,24.87
2022-08-10T12:28:49.833Z,24.40
2022-08-10T12:31:26.350Z,22.65
2022-08-10T12:34:06.505Z,21.80
2022-08-10T12:36:42.447Z,23.23
2022-08-10T12:39:17.675Z,22.70
2022-08-10T12:41:54.085Z,23.75
2022-08-10T12:44:41.930Z,21.83
2022-08-10T12:47:21.257Z,22.58
2022-08-10T12:50:26.656Z,24.95
2022-08-10T12:52:56.489Z,24.73
2022-08-10T12:55:26.321Z,23.50
2022-08-10T12:57:57.568Z,23.98
2022-08-10T13:00:35.102Z,24.17
2022-08-10T13:03:06.666Z,22.88
2022-08-10T13:05:54.920Z,23.65
2022-08-10T13:08:44.802Z,23.15
2022-08-10T13:11:18.527Z,22.65
2022-08-10T13:14:11.122Z,23.08
2022-08-10T13:16:40.989Z,24.70
2022-08-10T13:19:11.577Z,23.67
2022-08-10T13:21:42.588Z,24.40
2022-08-10T13:24:16.920Z,24.73
2022-08-10T13:27:25.602Z,24.25
2022-08-10T13:29:56.642Z,24.17
2022-08-10T13:32:29.307Z,23.45
2022-08-10T13:35:02.566Z,23.30
2022-08-10T13:37:34.244Z,23.38
2022-08-10T13:40:06.770Z,23.73
2022-08-10T13:42:37.725Z,23.02
2022-08-10T13:45:10.703Z,24.17
2022-08-10T13:47:48.360Z,23.23
2022-08-10T13:50:34.562Z,23.98
2022-08-10T13:53:11.439Z,23.35
2022-08-10T13:55:54.123Z,23.70
2022-08-10T13:58:26.055Z,23.08
2022-08-10T14:00:57.179Z,23.92
2022-08-10T14:03:28.253Z,22.90
2022-08-10T14:05:59.740Z,24.02
2022-08-10T14:08:34.705Z,23.38
2022-08-10T14:11:11.547Z,24.00
2022-08-10T14:13:45.058Z,24.10
2022-08-10T14:16:14.347Z,24.80
2022-08-10T14:18:45.821Z,23.75
2022-08-10T14:21:15.030Z,23.20
2022-08-10T14:23:52.849Z,25.02
2022-08-10T14:26:26.758Z,23.45
2022-08-10T14:28:58.239Z,22.67
2022-08-10T14:31:33.733Z,23.45
2022-08-10T14:34:05.605Z,23.90
2022-08-10T14:36:43.386Z,24.15
2022-08-10T14:39:20.590Z,25.02
2022-08-10T14:42:03.223Z,23.13
2022-08-10T14:44:49.374Z,23.58
2022-08-10T14:47:53.520Z,24.38
2022-08-10T14:50:32.580Z,24.38
2022-08-10T14:53:05.647Z,24.10
2022-08-10T14:55:58.633Z,23.90
2022-08-10T14:58:34.246Z,23.02
2022-08-10T15:01:05.699Z,23.45
2022-08-10T15:04:01.608Z,24.30
2022-08-10T15:06:30.620Z,24.60
2022-08-10T15:09:18.935Z,23.88
2022-08-10T15:12:13.240Z,25.35
2022-08-10T15:14:45.710Z,24.75
2022-08-10T15:17:17.390Z,23.38
2022-08-10T15:20:02.260Z,24.63
2022-08-10T15:22:37.963Z,22.83
2022-08-10T15:25:19.623Z,24.15
2022-08-10T15:27:56.533Z,24.65
2022-08-10T15:30:32.248Z,24.83
2022-08-10T15:33:57.860Z,23.92
2022-08-10T15:36:34.723Z,23.20
2022-08-10T15:39:16.593Z,22.48
2022-08-10T15:42:00.493Z,24.33
2022-08-10T15:44:40.775Z,23.38
2022-08-10T15:47:17.766Z,23.30
2022-08-10T15:49:52.801Z,26.42
2022-08-10T15:53:00.024Z,24.92
2022-08-10T15:55:42.622Z,25.23
2022-08-10T15:58:09.696Z,24.02
2022-08-10T16:00:42.158Z,24.13
2022-08-10T16:03:18.705Z,23.77
2022-08-10T16:06:01.581Z,24.02
2022-08-10T16:08:56.324Z,23.30
2022-08-10T16:11:37.836Z,22.95
2022-08-10T16:14:14.410Z,24.35
2022-08-10T16:16:48.783Z,25.85
2022-08-10T16:19:24.988Z,24.10
2022-08-10T16:22:37.192Z,24.40
2022-08-10T16:24:55.369Z,24.60
2022-08-10T16:27:27.553Z,23.60
2022-08-10T16:30:00.136Z,26.08
2022-08-10T16:32:31.125Z,24.25
2022-08-10T16:35:08.798Z,23.38
2022-08-10T16:37:56.729Z,23.85
2022-08-10T16:40:29.898Z,23.10
2022-08-10T16:43:00.977Z,24.08
2022-08-10T16:45:35.727Z,22.27
2022-08-10T16:48:06.695Z,28.45
2022-08-10T16:50:41.910Z,23.10
2022-08-10T16:53:13.983Z,22.95
2022-08-10T16:55:50.551Z,23.27
2022-08-10T16:58:25.093Z,22.90
2022-08-10T17:00:58.993Z,24.20
2022-08-10T17:04:05.728Z,22.98
2022-08-10T17:06:27.700Z,24.50
2022-08-10T17:09:00.237Z,23.55
2022-08-10T17:11:31.749Z,23.33
2022-08-10T17:14:02.724Z,23.85
2022-08-10T17:16:36.381Z,23.10
2022-08-10T17:19:11.747Z,23.25
2022-08-10T17:21:50.974Z,22.58
2022-08-10T17:24:24.196Z,22.73
2022-08-10T17:26:53.369Z,23.23
2022-08-10T17:29:58.412Z,23.10
2022-08-10T17:32:31.480Z,21.73
2022-08-10T17:35:02.245Z,23.35
2022-08-10T17:37:39.074Z,22.23
2022-08-10T17:40:11.534Z,22.53
2022-08-10T17:42:41.801Z,23.67
2022-08-10T17:45:20.876Z,24.77
2022-08-10T17:48:09.465Z,22.27
2022-08-10T17:50:41.684Z,22.20
2022-08-10T17:53:16.061Z,22.03
2022-08-10T17:55:47.914Z,22.93
2022-08-10T17:58:28.026Z,22.23
2022-08-10T18:01:38.133Z,22.87
2022-08-10T18:03:53.213Z,25.00
2022-08-10T18:06:23.757Z,23.60
2022-08-10T18:08:57.790Z,24.10
2022-08-10T18:11:33.314Z,23.63
2022-08-10T18:14:06.181Z,24.27
2022-08-10T18:16:35.619Z,23.43
2022-08-10T18:19:12.963Z,24.87
2022-08-10T18:21:43.320Z,23.17
2022-08-10T18:24:17.893Z,22.77
2022-08-10T18:26:50.052Z,24.73
2022-08-10T18:29:22.459Z,23.00
2022-08-10T18:31:57.490Z,21.90
2022-08-10T18:34:27.217Z,21.57
2022-08-10T18:36:57.831Z,23.70
2022-08-10T18:39:30.242Z,22.83
2022-08-10T18:42:06.346Z,22.37
2022-08-10T18:44:39.139Z,23.60
2022-08-10T18:47:13.933Z,23.83
2022-08-10T18:49:58.098Z,23.03
2022-08-10T18:52:31.128Z,22.50
2022-08-10T18:55:14.376Z,23.30
2022-08-10T18:58:27.591Z,22.33
2022-08-10T19:01:12.835Z,22.53
2022-08-10T19:03:56.675Z,21.93
2022-08-10T19:06:51.723Z,20.57
2022-08-10T19:09:46.275Z,21.80
2022-08-10T19:12:34.689Z,21.60
2022-08-10T19:15:10.414Z,19.87
2022-08-10T19:18:06.501Z,21.30
2022-08-10T19:20:43.127Z,22.27
2022-08-10T19:23:28.340Z,20.63
2022-08-10T19:26:37.831Z,23.07
2022-08-10T19:30:07.852Z,21.67
2022-08-10T19:32:25.017Z,21.17
2022-08-10T19:35:06.100Z,21.17
2022-08-10T19:37:42.249Z,20.47
2022-08-10T19:40:21.531Z,22.30
2022-08-10T19:43:20.664Z,21.70
2022-08-10T19:46:19.451Z,20.17
2022-08-10T19:48:56.976Z,21.10
2022-08-10T19:51:31.109Z,20.77
2022-08-10T19:54:08.532Z,21.63
2022-08-10T19:56:45.499Z,21.57
2022-08-10T20:00:15.767Z,20.90
2022-08-10T20:02:24.253Z,21.67
2022-08-10T20:05:03.737Z,21.03
2022-08-10T20:07:40.139Z,19.57
2022-08-10T20:10:15.862Z,20.80
2022-08-10T20:12:51.280Z,21.00
2022-08-10T20:15:29.105Z,21.93
2022-08-10T20:18:06.883Z,22.90
2022-08-10T20:20:46.715Z,21.57
2022-08-10T20:23:18.828Z,21.87
2022-08-10T20:25:52.179Z,21.33
2022-08-10T20:28:29.340Z,20.70
2022-08-10T20:31:08.905Z,22.33
2022-08-10T20:33:44.311Z,20.67
2022-08-10T20:36:24.549Z,21.17
2022-08-10T20:39:05.102Z,20.60
2022-08-10T20:41:46.338Z,21.87
2022-08-10T20:44:29.984Z,21.47
2022-08-10T20:47:04.013Z,19.90
2022-08-10T20:49:42.295Z,19.43
2022-08-10T20:52:12.217Z,20.40
2022-08-10T20:54:47.148Z,23.53
2022-08-10T20:57:55.135Z,21.20
2022-08-10T21:00:47.790Z,21.67
2022-08-10T21:03:45.817Z,21.43
2022-08-10T21:06:43.886Z,21.70
2022-08-10T21:09:28.815Z,21.30
2022-08-10T21:12:19.577Z,21.47
2022-08-10T21:14:55.055Z,21.07
2022-08-10T21:17:39.199Z,18.93
2022-08-10T21:20:32.357Z,20.23
2022-08-10T21:23:05.847Z,19.53
2022-08-10T21:25:50.040Z,19.10
2022-08-10T21:28:35.207Z,18.70
2022-08-10T21:31:16.426Z,20.27
2022-08-10T21:34:10.205Z,19.73
2022-08-10T21:36:43.702Z,20.07
2022-08-10T21:39:21.951Z,20.20
2022-08-10T21:42:38.161Z,19.67
2022-08-10T21:45:58.746Z,19.93
2022-08-10T21:48:57.339Z,17.70
2022-08-10T21:52:01.634Z,19.23
2022-08-10T21:55:11.653Z,18.87
2022-08-10T21:58:07.129Z,19.47
2022-08-10T22:00:59.131Z,17.97
2022-08-10T22:03:46.413Z,18.40
2022-08-10T22:06:33.934Z,19.43
2022-08-10T22:09:33.621Z,20.63
2022-08-10T22:12:25.015Z,19.03
2022-08-10T22:15:24.217Z,18.63
2022-08-10T22:18:33.338Z,18.50
2022-08-10T22:21:29.136Z,19.87
2022-08-10T22:24:45.270Z,19.07
2022-08-10T22:27:52.912Z,19.07
2022-08-10T22:30:41.502Z,21.33
2022-08-10T22:33:47.316Z,18.77
2022-08-10T22:37:06.791Z,19.20
2022-08-10T22:40:14.344Z,19.10
2022-08-10T22:43:10.338Z,19.87
2022-08-10T22:46:03.290Z,17.87
2022-08-10T22:48:51.053Z,17.13
2022-08-10T22:51:24.550Z,17.43
2022-08-10T22:54:31.199Z,18.57
2022-08-10T22:57:19.313Z,17.67
2022-08-10T22:59:50.292Z,18.47
2022-08-10T23:02:30.696Z,17.77
2022-08-10T23:09:25.952Z,17.83
2022-08-10T23:11:58.775Z,18.73
2022-08-10T23:14:36.057Z,18.10
2022-08-10T23:18:01.165Z,18.20
2022-08-10T23:20:28.978Z,18.90
2022-08-10T23:23:08.958Z,17.90
2022-08-10T23:25:56.966Z,17.87
2022-08-10T23:28:38.556Z,17.30
2022-08-10T23:36:30.145Z,18.17
2022-08-10T23:38:00.782Z,18.57
2022-08-10T23:40:29.745Z,17.13
2022-08-10T23:42:59.579Z,18.23
2022-08-10T23:45:53.607Z,17.93
2022-08-10T23:48:22.440Z,17.10
2022-08-10T23:50:59.429Z,18.23
2022-08-10T23:53:31.237Z,17.93
2022-08-10T23:56:02.993Z,17.80
2022-08-10T23:58:38.785Z,16.33
